Riley, Indiana
Current Conditions -  °F | °C
As of 5:53 AM on Monday 20 Oct 2014 (Local Time) from KHUF Reporting Station
Overcast Overcast  
Wind Chill: 50°   Ceiling: 9500
Heat Index: 50°   Visibility: 10mi
Dew Point: 45°   Wind: 8mph
Humidity: 83%   Direction: 210°SSW
Pressure: 29.96"   Gusts: NA
Location:  39.39°N, 87.3°W
Report Text: KHUF 200953Z 21007KT 10SM OVC095 10/07 A2996 RMK AO2 RAE0859 SLP147 P0000 T01000072
Loading
Personal Weather Stations






























Interactive Weather Map
Tropical Storm Tracking
New forecast layout! Learn more

10-Day Weather Forecast

Advertisements
Track Severe Weather on mobile